WEATHER DATA

YESTERDAY
Time Temp. Dewp. Hum. Wind dir Wind speed Wind gust Bar. 1h Prec. 24h Prec.
00:10 3.4 3.4 100 36 0.8 1.1 1031.9 0.0000 0.0000
00:20 3.4 3.4 100 225 0.3 1.1 1031.8 0.0000 0.0000
00:30 3.4 3.4 100 212 0.8 1.1 1031.8 0.0000 0.0000
00:40 3.5 3.5 100 219 0.8 1.9 1031.9 0.0000 0.0000
00:51 3.5 3.5 100 207 1.1 1.9 1031.9 0.0000 0.0000
01:00 3.5 3.5 100 207 0.8 1.7 1031.9 0.0000 0.0000
01:10 3.5 3.5 100 212 0.8 1.9 1031.9 0.0000 0.0000
01:21 3.4 3.4 100 225 0.8 1.7 1031.9 0.0000 0.0000
01:31 3.4 3.4 100 188 0.8 1.9 1031.9 0.0000 0.0000
01:41 3.4 3.4 100 207 0.8 1.7 1031.9 0.0000 0.0000
01:50 3.4 3.4 100 90 0.8 2.5 1031.9 0.0000 0.0000
02:01 3.3 3.3 100 144 0.3 1.1 1031.9 0.0000 0.0000
02:10 3.3 3.3 100 185 0.8 2.5 1031.9 0.0000 0.0000
02:21 3.2 3.2 100 135 0.8 1.7 1031.8 0.0000 0.0000
02:31 3.2 3.2 100 135 0.8 1.7 1031.7 0.0000 0.0000
02:42 3.2 3.2 100 214 1.1 2.5 1031.6 0.0000 0.0000
02:51 3.2 3.2 100 219 0.8 1.9 1031.5 0.0000 0.0000
03:01 3.2 3.2 100 168 1.1 2.5 1031.4 0.0000 0.0000
03:12 3.1 3.1 100 193 0.8 1.7 1031.4 0.0000 0.0000
03:22 3.1 3.1 100 214 1.1 2.8 1031.4 0.0000 0.0000
03:32 3.1 3.1 100 173 0.8 1.9 1031.4 0.0000 0.0000
03:42 3 3 100 176 0.8 1.1 1031.3 0.0000 0.0000
03:52 3 3 100 189 0.3 1.1 1031.3 0.0000 0.0000
04:02 3.1 3.1 100 180 0.8 1.1 1031.3 0.0000 0.0000
04:12 3.1 3.1 100 185 0.8 2.8 1031.3 0.0000 0.0000
04:23 3.1 3.1 100 203 0.8 1.7 1031.2 0.0000 0.0000
04:33 3.1 3.1 100 148 1.1 2.5 1031.2 0.0000 0.0000
04:42 3 3 100 183 0.3 1.1 1031.2 0.0000 0.0000
04:52 3 3 100 210 0.8 1.7 1031.3 0.0000 0.0000
05:03 3.1 3.1 100 218 0.8 1.7 1031.3 0.0000 0.0000
05:12 3 3 100 183 0.3 1.7 1031.3 0.0000 0.0000
05:23 3 3 100 215 1.1 2.5 1031.3 0.0000 0.0000
05:32 2.9 2.9 100 210 0.8 1.7 1031.2 0.0000 0.0000
05:41 2.9 2.9 100 212 0.8 2.5 1031.2 0.0000 0.0000
05:51 2.9 2.9 100 216 0.8 2.5 1031.3 0.0000 0.0000
06:02 2.9 2.9 100 207 0.8 1.7 1031.3 0.0000 0.0000
06:12 2.8 2.8 100 213 1.1 2.5 1031.4 0.0000 0.0000
06:22 2.8 2.8 100 205 0.8 1.9 1031.3 0.0000 0.0000
06:32 2.7 2.7 100 164 0.8 1.7 1031.3 0.0000 0.0000
06:41 2.7 2.7 100 218 0.8 1.1 1031.4 0.0000 0.0000
06:52 2.7 2.7 100 217 0.8 2.5 1031.4 0.0000 0.0000
07:02 2.7 2.7 100 206 0.8 1.7 1031.4 0.0000 0.0000
07:13 2.7 2.7 100 146 0.8 1.9 1031.5 0.0000 0.0000
07:23 2.7 2.7 100 203 0.3 1.1 1031.5 0.0000 0.0000
07:33 2.7 2.7 100 175 0.8 1.7 1031.5 0.0000 0.0000
07:42 2.7 2.7 100 218 1.1 2.8 1031.5 0.0000 0.0000
07:53 2.8 2.8 100 196 0.8 2.5 1031.5 0.0000 0.0000
08:03 2.8 2.8 100 160 0.8 1.7 1031.5 0.0000 0.0000
08:13 2.9 2.9 100 185 0.3 1.7 1031.5 0.0000 0.0000
08:23 3 3 100 221 0.8 1.7 1031.5 0.0000 0.0000
08:33 3.1 3.1 100 199 0.8 1.7 1031.5 0.0000 0.0000
08:43 3.1 3.1 100 211 0.8 1.9 1031.6 0.0000 0.0000
08:53 3.2 3.2 100 211 1.1 2.8 1031.6 0.0000 0.0000
09:04 3.2 3.2 100 184 0.8 1.9 1031.8 0.0000 0.0000
09:14 3.4 3.4 100 178 1.1 1.9 1031.8 0.0000 0.0000
09:24 3.5 3.5 100 225 0.3 1.1 1031.9 0.0000 0.0000
09:34 3.6 3.6 100 90 0.8 1.7 1031.9 0.0000 0.0000
09:44 3.7 3.7 100 168 0.8 1.7 1031.9 0.0000 0.0000
09:54 3.8 3.8 100 186 0.8 1.7 1031.8 0.0000 0.0000
10:04 3.9 3.9 100 198 0.3 1.1 1031.9 0.0000 0.0000
10:25 4.2 4.2 100 196 0.8 1.7 1031.9 0.0000 0.0000
10:34 4.3 4.3 100 189 0.8 1.9 1031.9 0.0000 0.0000
10:44 4.6 4.6 100 225 0.3 1.7 1031.9 0.0000 0.0000
10:55 4.7 4.7 100 176 0.3 1.1 1031.8 0.0000 0.0000
11:05 4.7 4.7 100 233 0.3 1.7 1031.8 0.1010 0.1000
11:15 4.8 4.8 100 45 0.3 1.1 1031.8 0.1010 0.1000
11:25 4.9 4.9 100 225 0.3 1.1 1031.8 0.1010 0.1000
11:35 5 5 100 168 0.3 1.1 1031.8 0.1010 0.1000
11:45 5.3 5.3 100 206 0.3 1.7 1031.8 0.1010 0.1000
11:55 5.4 5.4 100 225 0.3 0.8 1031.8 0.0000 0.1000
12:06 5.4 5.4 100 192 0.3 1.1 1031.7 0.0000 0.1000
12:15 5.3 5.3 100 90 0.3 1.7 1031.5 0.0000 0.1000
12:25 5.3 5.2 99 208 1.1 2.8 1031.3 0.0000 0.1000
12:36 5.3 5.3 100 199 0.8 1.9 1031.1 0.0000 0.1000
12:46 5.3 5.3 100 185 0.8 1.9 1031 0.0000 0.1000
12:56 5.3 5.3 100 186 0.8 1.9 1030.9 0.0000 0.1000
13:06 5.5 5.5 100 141 0.8 1.9 1030.8 0.0000 0.1000
13:17 5.7 5.7 100 105 1.1 2.5 1030.7 0.0000 0.1000
13:26 5.9 5.9 100 90 1.1 2.5 1030.6 0.0000 0.1000
13:36 6.2 6.2 100 90 0.8 1.9 1030.5 0.0000 0.1000
13:46 6.5 6.5 100 102 1.1 3.3 1030.5 0.0000 0.1000
13:57 6.7 6.6 99 90 1.1 2.5 1030.4 0.0000 0.1000
14:07 7 6.9 99 90 0.8 3.3 1030.3 0.0000 0.1000
14:16 7.3 7.3 100 90 0.8 2.5 1030.2 0.0000 0.1000
14:27 7.5 7.4 99 105 0.8 2.5 1030 0.0000 0.1000
14:37 7.8 7.7 99 90 0.8 2.5 1030 0.0000 0.1000
14:47 8 7.7 98 90 0.8 3.6 1030 0.0000 0.1000
14:57 8.1 7.7 97 107 1.1 3.3 1029.9 0.0000 0.1000
15:08 8.3 7.7 96 122 1.1 3.3 1029.9 0.0000 0.1000
15:17 8.5 7.9 96 90 1.7 2.8 1029.8 0.0000 0.1000
15:27 8.6 7.8 95 90 1.7 3.6 1029.8 0.0000 0.1000
15:38 8.7 7.8 94 90 1.7 3.3 1029.6 0.0000 0.1000
15:48 8.9 8 94 77 1.7 4.4 1029.5 0.0000 0.1000
15:58 9 8.1 94 90 1.1 3.3 1029.5 0.0000 0.1000
16:08 9.1 8.2 94 78 1.7 3.3 1029.4 0.0000 0.1000
16:18 9.2 8.3 94 90 1.1 2.8 1029.4 0.0000 0.1000
16:28 9.3 8.4 94 79 1.1 2.8 1029.3 0.0000 0.1000
16:38 9.3 8.4 94 63 1.7 3.6 1029.2 0.0000 0.1000
16:48 9.3 8.4 94 90 1.1 3.3 1029.1 0.0000 0.1000
16:59 9.3 8.4 94 59 1.1 2.8 1029.1 0.0000 0.1000
17:08 9.2 8.1 93 90 0.8 2.8 1029.1 0.0000 0.1000
17:18 9.1 8 93 102 0.8 1.9 1029 0.0000 0.1000
17:29 9 7.9 93 90 0.8 1.7 1029 0.0000 0.1000
17:39 8.9 7.8 93 79 0.8 1.9 1029 0.0000 0.1000
17:49 8.7 7.6 93 90 0.3 1.7 1029 0.0000 0.1000
17:59 8.5 7.6 94 338 0.3 1.1 1029 0.0000 0.1000
18:09 8.3 7.5 95 29 0.3 1.1 1029 0.0000 0.1000
18:19 8.3 7.5 95 59 0.3 1.7 1029.1 0.0000 0.1000
18:29 8.2 7.4 95 48 0.3 1.7 1029 0.0000 0.1000
18:40 8.1 7.3 95 21 0.3 1.1 1029 0.0000 0.1000
18:50 7.9 7.3 96 26 0.3 1.1 1029 0.0000 0.1000
18:59 7.7 7.1 96 0 0.8 1029 0.0000 0.1000
19:09 7.5 6.9 96 90 0.3 0.8 1028.9 0.0000 0.1000
19:20 7.3 6.9 97 50 0.3 1.1 1028.9 0.0000 0.1000
19:30 7.2 6.8 97 45 0.3 0.8 1028.9 0.0000 0.1000
19:40 6.9 6.5 97 0 0.8 1028.8 0.0000 0.1000
19:50 6.7 6.3 97 90 0.3 1.1 1028.8 0.0000 0.1000
20:00 6.7 6.4 98 60 0.3 1.1 1028.8 0.0000 0.1000
20:10 6.7 6.4 98 50 0.8 1.7 1028.7 0.0000 0.1000
20:20 6.6 6.3 98 45 0.3 1.1 1028.8 0.0000 0.1000
20:31 6.4 6 97 270 0.3 1.1 1028.8 0.0000 0.1000
20:41 6.2 5.8 97 318 0.3 1.1 1028.7 0.0000 0.1000
20:51 6 5.7 98 348 0.3 1.1 1028.7 0.0000 0.1000
21:01 5.8 5.5 98 347 0.3 1.1 1028.7 0.0000 0.1000
21:11 5.6 5.3 98 357 0.3 1.1 1028.6 0.0000 0.1000
21:21 5.6 5.3 98 45 0.8 1.1 1028.5 0.0000 0.1000
21:31 5.4 5.1 98 349 0.3 1.1 1028.5 0.0000 0.1000
21:44 5.3 5 98 356 0.3 1.1 1028.6 0.0000 0.1000
21:54 5.1 4.8 98 345 0.3 1.1 1028.5 0.0000 0.1000
22:04 5.1 5 99 36 0.3 1.1 1028.5 0.0000 0.1000
22:14 5 4.9 99 351 0.3 1.7 1028.5 0.0000 0.1000
22:24 4.9 4.8 99 357 0.3 1.1 1028.5 0.0000 0.1000
22:35 4.8 4.7 99 270 0.3 1.1 1028.5 0.0000 0.1000
22:44 4.5 4.2 98 222 0.8 1.7 1028.6 0.0000 0.1000
22:54 4.3 4 98 270 0.3 1.7 1028.6 0.0000 0.1000
23:04 4 3.7 98 312 0.8 1.7 1028.5 0.0000 0.1000
23:15 3.9 3.8 99 270 0.3 1.1 1028.6 0.0000 0.1000
23:25 3.8 3.7 99 347 0.3 1.7 1028.5 0.0000 0.1000
23:35 3.7 3.6 99 333 0.3 1.7 1028.3 0.0000 0.1000
23:45 3.6 3.5 99 270 0.3 1.1 1028.3 0.0000 0.1000
23:55 3.5 3.4 99 303 0.8 1.7 1028.1 0.0000

DAY STATISTIC

2021-03-02
TEMPERATURE
AVERAGE
5.1
HIGH
9.3
16:28
LOW
2.7
06:32
PRESSURE
AVERAGE
1030.5
HIGH
1031.9
00:10
LOW
1028.1
23:55
DEWPOINT
AVERAGE
4.9
HIGH
8.4
16:28
LOW
2.7
06:32
HUMIDITY
AVERAGE
99
HIGH
100
00:10
LOW
93
17:08
WIND SPEED
AVERAGE
0.7
HIGH
1.7
15:17
WIND GUST
AVERAGE
1.9
HIGH
4.4
15:48
WIND DIRECTION
PREVAILING
SW
24.8%
N
7.8
NE
10.6
E
21.3
SE
5.0
S
22.7
SW
24.8
W
3.5
NW
2.8
PRECIPITATION
RAIN HOUR
0.1
RAIN DAY
0.1
TEMPERATURE (°C)
LOW
2.7
HIGH
9.3
AVERAGE
5.1
PRESSURE (hpa)
LOW
1028.1
HIGH
1031.9
AVERAGE
1030.5
DEVICE